Time;durP1;ratioP1;P1;durP2;ratioP2;P2;SDS_P1;SDS_P2;PMS_P1;PMS_P2;Temp;Humidity;BMP_temperature;BMP_pressure;BME280_temperature;BME280_humidity;BME280_pressure;Samples;Min_cycle;Max_cycle;Signal;HPM_P1;HPM_P2
2022/03/24 00:00:10;;;;;;;72.28;47.78;;;;;;;6.02;100.00;103088.44;6242660;23;20024;-75
2022/03/24 00:02:41;;;;;;;65.45;45.95;;;;;;;6.00;100.00;103094.41;6219330;23;20042;-75
2022/03/24 00:05:11;;;;;;;67.57;47.22;;;;;;;5.98;100.00;103086.47;6242505;23;20047;-75
2022/03/24 00:07:41;;;;;;;68.30;44.67;;;;;;;5.98;100.00;103088.19;6215472;23;20024;-75
2022/03/24 00:10:10;;;;;;;68.35;45.60;;;;;;;5.96;100.00;103085.47;6228205;23;20023;-75
2022/03/24 00:12:41;;;;;;;64.47;44.75;;;;;;;5.95;100.00;103081.03;6216640;23;20020;-75
2022/03/24 00:15:10;;;;;;;66.28;44.97;;;;;;;5.93;100.00;103085.25;6208913;23;20012;-75
2022/03/24 00:17:38;;;;;;;65.07;45.53;;;;;;;5.91;100.00;103079.03;6228628;23;20370;-75
2022/03/24 00:20:07;;;;;;;62.70;45.80;;;;;;;5.89;100.00;103080.66;6245388;23;20012;-75
2022/03/24 00:22:35;;;;;;;63.05;44.88;;;;;;;5.88;100.00;103075.31;6240087;23;20241;-75
2022/03/24 00:25:05;;;;;;;67.38;46.53;;;;;;;5.85;100.00;103083.91;6244414;23;20023;-75
2022/03/24 00:27:33;;;;;;;67.32;45.55;;;;;;;5.82;100.00;103082.03;6210617;23;20491;-75
2022/03/24 00:30:02;;;;;;;61.25;45.22;;;;;;;5.80;100.00;103080.13;6218703;23;20366;-75
2022/03/24 00:32:31;;;;;;;66.90;46.60;;;;;;;5.78;100.00;103086.97;6201406;23;20479;-75
2022/03/24 00:35:01;;;;;;;60.33;43.45;;;;;;;5.74;100.00;103083.28;6212776;23;20250;-75
2022/03/24 00:37:31;;;;;;;67.18;45.80;;;;;;;5.71;100.00;103085.72;6213838;23;20186;-75
2022/03/24 00:40:06;;;;;;;66.75;45.45;;;;;;;5.68;100.00;103084.63;6220075;23;20442;-75
2022/03/24 00:42:36;;;;;;;66.10;44.47;;;;;;;5.65;100.00;103086.25;6212792;23;20024;-75
2022/03/24 00:45:09;;;;;;;64.43;46.28;;;;;;;5.62;100.00;103079.94;6244670;23;20020;-75
2022/03/24 00:47:43;;;;;;;64.03;44.60;;;;;;;5.58;100.00;103081.47;6147491;23;20020;-75
2022/03/24 00:50:13;;;;;;;66.35;45.00;;;;;;;5.54;100.00;103083.81;6234106;23;20020;-75
2022/03/24 00:52:42;;;;;;;71.60;45.92;;;;;;;5.53;100.00;103082.00;6216585;23;20027;-75
2022/03/24 00:55:14;;;;;;;71.65;48.08;;;;;;;5.49;100.00;103077.41;6218197;23;20024;-75
2022/03/24 00:57:49;;;;;;;71.55;46.50;;;;;;;5.47;100.00;103080.81;6238843;23;20269;-75
2022/03/24 01:00:20;;;;;;;67.78;46.80;;;;;;;5.43;100.00;103076.22;6240385;23;20020;-75
2022/03/24 01:02:51;;;;;;;64.00;45.58;;;;;;;5.45;100.00;103081.56;6121446;23;20020;-75
2022/03/24 01:05:27;;;;;;;68.80;46.67;;;;;;;5.43;100.00;103073.63;6235470;23;20346;-75
2022/03/24 01:07:56;;;;;;;70.93;48.47;;;;;;;5.42;100.00;103069.19;6217997;23;20028;-75
2022/03/24 01:10:25;;;;;;;68.90;48.60;;;;;;;5.42;100.00;103068.28;6188812;23;20015;-75
2022/03/24 01:12:55;;;;;;;69.68;49.60;;;;;;;5.39;100.00;103066.41;6214887;23;20024;-75
2022/03/24 01:15:26;;;;;;;68.35;48.03;;;;;;;5.39;100.00;103065.50;6208185;23;20438;-75
2022/03/24 01:18:00;;;;;;;72.40;50.08;;;;;;;5.36;100.00;103057.47;6219069;23;20350;-75
2022/03/24 01:20:30;;;;;;;68.10;48.72;;;;;;;5.33;100.00;103057.28;6226527;23;20135;-75
2022/03/24 01:23:01;;;;;;;69.95;47.70;;;;;;;5.30;100.00;103060.63;6244131;23;20019;-75
2022/03/24 01:25:29;;;;;;;73.03;50.53;;;;;;;5.28;100.00;103062.25;6239215;23;20020;-75
2022/03/24 01:27:58;;;;;;;70.57;48.90;;;;;;;5.26;100.00;103061.25;6239519;23;20640;-75
2022/03/24 01:30:26;;;;;;;70.18;48.80;;;;;;;5.24;100.00;103061.16;6217357;23;20020;-75
2022/03/24 01:32:54;;;;;;;68.88;47.30;;;;;;;5.22;100.00;103054.94;6238227;23;20334;-75
2022/03/24 01:35:23;;;;;;;66.32;48.13;;;;;;;5.20;100.00;103053.94;6179372;23;20461;-75
2022/03/24 01:37:51;;;;;;;74.22;48.60;;;;;;;5.17;100.00;103058.06;6213310;23;20530;-75
2022/03/24 01:40:19;;;;;;;74.70;50.65;;;;;;;5.16;100.00;103061.47;6219090;23;20450;-75
2022/03/24 01:42:48;;;;;;;74.65;49.33;;;;;;;5.13;100.00;103056.09;6214671;23;20410;-75
2022/03/24 01:45:16;;;;;;;70.65;49.28;;;;;;;5.11;100.00;103052.47;6237951;23;20028;-75
2022/03/24 01:47:45;;;;;;;70.05;48.85;;;;;;;5.08;100.00;103045.34;6239225;23;20024;-75
2022/03/24 01:50:16;;;;;;;74.15;49.20;;;;;;;5.05;100.00;103048.69;6227608;23;20027;-75
2022/03/24 01:52:45;;;;;;;72.85;48.83;;;;;;;5.02;100.00;103047.59;6214905;23;20024;-75
2022/03/24 01:55:14;;;;;;;68.43;46.85;;;;;;;5.00;100.00;103050.09;6246150;23;20035;-75
2022/03/24 01:57:44;;;;;;;67.57;47.08;;;;;;;4.96;100.00;103040.28;6215850;23;20023;-75
2022/03/24 02:00:14;;;;;;;66.60;47.13;;;;;;;4.95;100.00;103038.44;6237658;23;20027;-75
2022/03/24 02:02:43;;;;;;;66.18;45.65;;;;;;;4.95;100.00;103045.41;6216522;23;20012;-75
2022/03/24 02:05:15;;;;;;;64.55;44.05;;;;;;;4.95;100.00;103038.44;6169572;23;20031;-75
2022/03/24 02:07:44;;;;;;;61.92;44.38;;;;;;;4.95;100.00;103045.41;6189682;23;20107;-75
2022/03/24 02:10:13;;;;;;;67.72;46.45;;;;;;;4.93;100.00;103042.69;6218852;23;20028;-75
2022/03/24 02:12:44;;;;;;;69.10;47.17;;;;;;;4.90;100.00;103039.91;6215607;23;20027;-75
2022/03/24 02:15:12;;;;;;;70.90;47.40;;;;;;;4.87;100.00;103030.16;6212666;23;20024;-75
2022/03/24 02:17:41;;;;;;;67.70;47.20;;;;;;;4.85;100.00;103038.72;6202355;23;20031;-75
2022/03/24 02:20:10;;;;;;;73.07;49.38;;;;;;;4.82;100.00;103034.22;6138627;23;20219;-75
2022/03/24 02:22:39;;;;;;;72.25;48.67;;;;;;;4.80;100.00;103033.22;6232938;23;20318;-75
2022/03/24 02:25:09;;;;;;;68.38;47.33;;;;;;;4.78;100.00;103029.59;6231223;23;20154;-75
2022/03/24 02:27:39;;;;;;;68.10;47.88;;;;;;;4.76;100.00;103027.69;6242832;23;20050;-75
2022/03/24 02:30:09;;;;;;;66.45;46.55;;;;;;;4.73;100.00;103020.56;6216086;23;20023;-75
2022/03/24 02:32:38;;;;;;;68.57;48.05;;;;;;;4.71;100.00;103021.28;6212137;23;20470;-75
2022/03/24 02:35:07;;;;;;;68.65;46.70;;;;;;;4.69;100.00;103016.88;6241964;23;20020;-75
2022/03/24 02:37:36;;;;;;;71.70;48.90;;;;;;;4.68;100.00;103020.28;6176620;23;20488;-75
2022/03/24 02:40:05;;;;;;;79.53;49.15;;;;;;;4.66;100.00;103014.06;6242668;23;20736;-75
2022/03/24 02:42:33;;;;;;;69.30;48.85;;;;;;;4.64;100.00;103018.28;6243888;23;20020;-75
2022/03/24 02:45:06;;;;;;;70.60;47.72;;;;;;;4.63;100.00;103015.56;6228548;23;20020;-75
2022/03/24 02:47:34;;;;;;;64.60;44.42;;;;;;;4.60;100.00;103020.63;6212352;23;20462;-75
2022/03/24 02:50:04;;;;;;;71.53;48.17;;;;;;;4.59;100.00;103013.59;6239831;23;20012;-75
2022/03/24 02:52:33;;;;;;;67.93;46.83;;;;;;;4.58;100.00;103017.91;6202518;23;20023;-75
2022/03/24 02:55:02;;;;;;;69.78;48.22;;;;;;;4.58;100.00;103017.03;6239255;23;20385;-75
2022/03/24 02:57:30;;;;;;;62.55;43.00;;;;;;;4.55;100.00;103012.47;6217544;23;20027;-75
2022/03/24 02:59:59;;;;;;;64.38;43.17;;;;;;;4.53;100.00;103007.97;6238552;23;20550;-75
2022/03/24 03:02:28;;;;;;;62.97;43.95;;;;;;;4.51;100.00;103010.50;6213301;23;20027;-75
2022/03/24 03:04:57;;;;;;;64.43;46.22;;;;;;;4.47;100.00;103012.00;6239654;23;20020;-75
2022/03/24 03:07:26;;;;;;;69.47;46.80;;;;;;;4.47;100.00;103016.34;6203034;23;20031;-75
2022/03/24 03:09:55;;;;;;;71.22;47.72;;;;;;;4.44;100.00;103010.91;6239707;23;20462;-75
2022/03/24 03:12:26;;;;;;;70.57;46.65;;;;;;;4.44;100.00;103005.69;6242943;23;20027;-75
2022/03/24 03:14:56;;;;;;;66.47;45.88;;;;;;;4.42;100.00;103015.13;6237609;23;20305;-75
2022/03/24 03:17:24;;;;;;;64.07;46.40;;;;;;;4.40;100.00;103011.53;6187542;23;20016;-75
2022/03/24 03:19:53;;;;;;;65.00;45.28;;;;;;;4.40;100.00;103008.91;6212092;23;20138;-76
2022/03/24 03:22:21;;;;;;;67.15;46.55;;;;;;;4.38;100.00;103010.53;6238120;23;20035;-75
2022/03/24 03:24:49;;;;;;;69.30;46.78;;;;;;;4.36;100.00;103007.81;6197477;23;20016;-76
2022/03/24 03:27:18;;;;;;;72.00;44.97;;;;;;;4.36;100.00;103014.75;6237984;23;20035;-75
2022/03/24 03:29:47;;;;;;;66.30;44.30;;;;;;;4.38;100.00;103013.13;6214130;23;20019;-76
2022/03/24 03:32:16;;;;;;;66.63;46.17;;;;;;;4.39;100.00;103007.13;6168786;23;20440;-74
2022/03/24 03:34:44;;;;;;;62.15;44.60;;;;;;;4.38;100.00;103007.91;6183646;23;20023;-75
2022/03/24 03:37:12;;;;;;;73.40;48.10;;;;;;;4.36;100.00;103005.22;6216529;23;20031;-75
2022/03/24 03:39:41;;;;;;;64.70;44.55;;;;;;;4.35;100.00;103007.72;6176438;23;20012;-75
2022/03/24 03:42:09;;;;;;;71.47;45.55;;;;;;;4.33;100.00;103015.47;6204707;23;20059;-75
2022/03/24 03:44:38;;;;;;;66.00;45.10;;;;;;;4.29;100.00;103009.16;6241518;23;20024;-75
2022/03/24 03:47:07;;;;;;;63.90;45.08;;;;;;;4.26;100.00;103003.72;6214771;23;20012;-75
2022/03/24 03:49:37;;;;;;;64.90;45.65;;;;;;;4.25;100.00;103003.63;6186145;23;20021;-75
2022/03/24 03:52:24;;;;;;;63.17;44.55;;;;;;;4.24;100.00;103009.66;6217100;23;20027;-75
2022/03/24 03:54:53;;;;;;;68.00;44.70;;;;;;;4.22;100.00;103006.06;6198348;23;20624;-75
2022/03/24 03:57:21;;;;;;;69.05;47.55;;;;;;;4.20;100.00;103003.34;6216552;23;20023;-75
2022/03/24 03:59:50;;;;;;;66.90;46.80;;;;;;;4.18;100.00;103004.03;6203476;23;20019;-75
2022/03/24 04:02:18;;;;;;;69.53;46.58;;;;;;;4.16;100.00;103005.66;6218092;23;20331;-75
2022/03/24 04:04:47;;;;;;;69.32;46.25;;;;;;;4.15;100.00;103016.91;6208772;23;20012;-75
2022/03/24 04:07:16;;;;;;;73.10;48.33;;;;;;;4.14;100.00;103009.88;6218182;23;20016;-75
2022/03/24 04:09:45;;;;;;;71.35;46.65;;;;;;;4.12;100.00;103006.25;6151673;23;20020;-75
2022/03/24 04:12:13;;;;;;;65.13;44.83;;;;;;;4.09;100.00;103007.88;6242186;23;20024;-75
2022/03/24 04:14:42;;;;;;;64.78;45.40;;;;;;;4.08;100.00;103007.75;6239855;23;20027;-75
2022/03/24 04:17:10;;;;;;;70.07;47.85;;;;;;;4.07;100.00;103014.69;6242643;23;20138;-75
2022/03/24 04:19:38;;;;;;;68.25;45.70;;;;;;;4.06;100.00;103022.41;6179650;23;20027;-75
2022/03/24 04:22:07;;;;;;;68.03;46.55;;;;;;;4.03;100.00;103011.81;6239578;23;20544;-75
2022/03/24 04:24:35;;;;;;;69.55;47.97;;;;;;;4.01;100.00;103013.41;6188374;23;20016;-75
2022/03/24 04:27:06;;;;;;;70.00;47.95;;;;;;;4.00;100.00;103014.22;6205315;23;20520;-75
2022/03/24 04:29:34;;;;;;;67.30;48.40;;;;;;;4.00;100.00;103019.44;6187245;23;20016;-75
2022/03/24 04:32:03;;;;;;;69.15;47.65;;;;;;;3.98;100.00;103010.59;6185332;23;20374;-75
2022/03/24 04:34:31;;;;;;;68.13;47.60;;;;;;;3.97;100.00;103019.22;6242710;23;20020;-75
2022/03/24 04:37:00;;;;;;;71.22;48.15;;;;;;;3.95;100.00;103010.38;6234153;23;20134;-75
2022/03/24 04:39:29;;;;;;;72.15;48.38;;;;;;;3.94;100.00;103008.59;6244569;23;20016;-75
2022/03/24 04:41:58;;;;;;;70.38;49.20;;;;;;;3.92;100.00;103011.09;6226768;23;20230;-75
2022/03/24 04:44:26;;;;;;;67.65;47.42;;;;;;;3.89;100.00;103008.28;6167634;23;20024;-75
2022/03/24 04:46:55;;;;;;;73.53;47.95;;;;;;;3.87;100.00;103012.50;6187030;23;20027;-75
2022/03/24 04:49:23;;;;;;;68.38;48.63;;;;;;;3.85;100.00;103008.91;6242125;23;20027;-75
2022/03/24 04:51:53;;;;;;;70.72;48.45;;;;;;;3.84;100.00;103007.09;6233303;23;20473;-75
2022/03/24 04:54:22;;;;;;;62.25;45.25;;;;;;;3.82;100.00;103008.69;6193641;23;20023;-75
2022/03/24 04:56:50;;;;;;;63.40;44.72;;;;;;;3.80;100.00;103005.06;6165030;23;20024;-75
2022/03/24 04:59:19;;;;;;;69.00;46.70;;;;;;;3.78;100.00;103010.22;6219074;23;20031;-75
2022/03/24 05:01:47;;;;;;;61.15;44.47;;;;;;;3.77;100.00;103016.22;6240977;23;20020;-75
2022/03/24 05:04:16;;;;;;;68.93;46.10;;;;;;;3.77;100.00;103010.09;6234269;23;20480;-75
2022/03/24 05:06:44;;;;;;;75.35;47.00;;;;;;;3.75;100.00;103007.41;6215785;23;20020;-75
2022/03/24 05:09:13;;;;;;;65.72;45.80;;;;;;;3.73;100.00;103002.91;6240038;23;20457;-75
2022/03/24 05:11:42;;;;;;;68.25;48.40;;;;;;;3.72;100.00;103009.78;6166824;23;20027;-75
2022/03/24 05:14:11;;;;;;;67.82;47.13;;;;;;;3.70;100.00;103014.00;6209124;23;20043;-75
2022/03/24 05:16:40;;;;;;;65.15;47.33;;;;;;;3.69;100.00;103020.03;6243504;23;20012;-75
2022/03/24 05:19:08;;;;;;;69.22;46.38;;;;;;;3.68;100.00;103010.41;6190457;23;20016;-75
2022/03/24 05:21:37;;;;;;;66.07;45.80;;;;;;;3.67;100.00;103008.59;6192201;23;20020;-75
2022/03/24 05:24:05;;;;;;;63.03;44.70;;;;;;;3.66;100.00;103012.00;6238628;23;20111;-75
2022/03/24 05:26:33;;;;;;;67.68;44.35;;;;;;;3.66;100.00;103015.50;6181910;23;20016;-75
2022/03/24 05:29:02;;;;;;;61.80;43.58;;;;;;;3.66;100.00;103010.28;6205347;23;20397;-75
2022/03/24 05:31:30;;;;;;;62.97;44.22;;;;;;;3.67;100.00;103003.38;6244133;23;20012;-75
2022/03/24 05:33:59;;;;;;;63.95;44.92;;;;;;;3.69;100.00;103002.69;6210817;23;20238;-75
2022/03/24 05:36:27;;;;;;;67.45;46.00;;;;;;;3.70;100.00;103006.19;6244679;23;20012;-75
2022/03/24 05:38:57;;;;;;;67.63;46.58;;;;;;;3.69;100.00;103010.50;6233773;23;20031;-75
2022/03/24 05:41:26;;;;;;;66.28;46.10;;;;;;;3.70;100.00;103019.22;6212985;23;20023;-75
2022/03/24 05:44:03;;;;;;;64.53;45.58;;;;;;;3.70;100.00;103014.00;6135565;23;20016;-75
2022/03/24 05:46:45;;;;;;;66.28;44.33;;;;;;;3.71;100.00;103010.59;6240567;23;20024;-75
2022/03/24 05:49:16;;;;;;;64.95;44.83;;;;;;;3.71;100.00;103016.72;6233726;23;20024;-75
2022/03/24 05:52:13;;;;;;;64.47;45.78;;;;;;;3.73;100.00;103015.94;6077925;23;20034;-75
2022/03/24 05:54:41;;;;;;;60.97;44.13;;;;;;;3.75;100.00;103015.22;6220261;23;20027;-75
2022/03/24 05:57:10;;;;;;;69.18;45.13;;;;;;;3.77;100.00;103016.22;6222566;23;20167;-75
2022/03/24 05:59:39;;;;;;;61.17;44.13;;;;;;;3.79;100.00;103018.94;6219627;23;20024;-76
2022/03/24 06:02:08;;;;;;;65.00;46.05;;;;;;;3.82;100.00;103013.91;6187022;23;20043;-76
2022/03/24 06:04:41;;;;;;;65.95;44.63;;;;;;;3.86;100.00;103027.25;6219874;23;20020;-76
2022/03/24 06:07:10;;;;;;;58.55;42.50;;;;;;;3.89;100.00;103013.50;6237224;23;20020;-76
2022/03/24 06:09:38;;;;;;;64.72;45.58;;;;;;;3.93;100.00;103018.09;6240643;23;20023;-75
2022/03/24 06:12:10;;;;;;;65.75;45.88;;;;;;;4.00;100.00;103011.59;6209816;23;20076;-75
2022/03/24 06:14:42;;;;;;;68.32;46.58;;;;;;;4.04;100.00;103017.09;6206646;23;20015;-75
2022/03/24 06:17:10;;;;;;;66.57;46.25;;;;;;;4.09;100.00;103013.09;6216165;23;20291;-75
2022/03/24 06:19:39;;;;;;;68.30;44.65;;;;;;;4.15;100.00;103025.63;6218643;23;20016;-75
2022/03/24 06:22:08;;;;;;;65.57;45.42;;;;;;;4.20;100.00;103016.41;6211593;23;20021;-75
2022/03/24 06:24:36;;;;;;;63.80;44.95;;;;;;;4.26;100.00;103022.00;6240645;23;20019;-76
2022/03/24 06:27:05;;;;;;;68.28;46.58;;;;;;;4.32;100.00;103016.25;6234433;23;20213;-75
2022/03/24 06:29:33;;;;;;;69.32;47.53;;;;;;;4.39;100.00;103018.47;6229345;23;20020;-75
2022/03/24 06:32:03;;;;;;;62.17;44.63;;;;;;;4.45;100.00;103025.78;6177356;23;20020;-75
2022/03/24 06:34:32;;;;;;;66.05;47.25;;;;;;;4.54;100.00;103030.66;6217723;23;21026;-76
2022/03/24 06:37:01;;;;;;;68.13;47.45;;;;;;;4.60;100.00;103025.84;6206720;23;20028;-76
2022/03/24 06:39:29;;;;;;;67.35;48.28;;;;;;;4.68;100.00;103033.34;6198874;23;20027;-76
2022/03/24 06:41:57;;;;;;;74.90;48.10;;;;;;;4.76;100.00;103020.75;6186118;23;21092;-76
2022/03/24 06:44:26;;;;;;;65.13;46.42;;;;;;;4.84;100.00;103032.59;6227030;23;20028;-76
2022/03/24 06:46:54;;;;;;;71.50;48.80;;;;;;;4.92;100.00;103025.22;6213940;23;20035;-76
2022/03/24 06:49:23;;;;;;;69.75;47.10;;;;;;;5.01;100.00;103028.41;6240337;23;20024;-76
2022/03/24 06:51:51;;;;;;;72.25;47.95;;;;;;;5.12;100.00;103022.91;6245480;23;20051;-76
2022/03/24 06:54:19;;;;;;;70.35;47.85;;;;;;;5.23;100.00;103017.50;6206143;23;20012;-76
2022/03/24 06:56:49;;;;;;;72.20;47.22;;;;;;;5.37;100.00;103031.41;6216685;23;20020;-76
2022/03/24 06:59:17;;;;;;;71.65;47.92;;;;;;;5.54;100.00;103024.56;6230564;23;20020;-76
2022/03/24 07:01:47;;;;;;;62.25;45.60;;;;;;;5.77;100.00;103025.00;6227154;23;20115;-76
2022/03/24 07:04:16;;;;;;;63.05;44.92;;;;;;;6.13;100.00;103027.97;6192788;23;20323;-76
2022/03/24 07:06:44;;;;;;;66.13;45.70;;;;;;;6.60;100.00;103030.56;6247841;23;20297;-78
2022/03/24 07:09:13;;;;;;;61.28;42.67;;;;;;;7.15;100.00;103026.47;6245391;23;20020;-78
2022/03/24 07:11:41;;;;;;;58.38;42.85;;;;;;;7.72;100.00;103019.75;6249287;23;20293;-79
2022/03/24 07:14:10;;;;;;;61.78;41.67;;;;;;;8.20;100.00;103025.63;6245101;23;20012;-79
2022/03/24 07:16:39;;;;;;;62.08;42.50;;;;;;;8.77;100.00;103023.03;6204497;23;20016;-78
2022/03/24 07:19:09;;;;;;;60.50;41.25;;;;;;;9.36;100.00;103022.97;6252857;23;20026;-78
2022/03/24 07:21:37;;;;;;;60.30;41.17;;;;;;;9.84;100.00;103033.75;6218843;23;20529;-79
2022/03/24 07:24:06;;;;;;;57.03;40.30;;;;;;;10.28;100.00;103017.91;6222891;23;20023;-79
2022/03/24 07:26:35;;;;;;;56.38;39.83;;;;;;;10.69;100.00;103027.44;6216177;23;20142;-78
2022/03/24 07:29:04;;;;;;;60.40;39.70;;;;;;;11.07;100.00;103016.50;6245297;23;20016;-78
2022/03/24 07:31:32;;;;;;;57.97;39.67;;;;;;;11.36;100.00;103019.28;6216301;23;20039;-79
2022/03/24 07:34:01;;;;;;;58.13;37.35;;;;;;;11.62;100.00;103020.16;6220346;23;20043;-80
2022/03/24 07:36:29;;;;;;;59.45;39.42;;;;;;;11.81;100.00;103019.91;6237866;23;20567;-79
2022/03/24 07:38:58;;;;;;;51.92;40.33;;;;;;;11.95;100.00;103020.44;6222907;23;20027;-79
2022/03/24 07:41:27;;;;;;;50.67;38.95;;;;;;;12.06;100.00;103018.09;6178232;23;20024;-79
2022/03/24 07:43:55;;;;;;;52.97;39.80;;;;;;;12.14;100.00;103027.19;6173880;23;20020;-79
2022/03/24 07:46:24;;;;;;;56.55;39.15;;;;;;;12.24;100.00;103028.38;6206086;23;20032;-80
2022/03/24 07:48:52;;;;;;;54.97;39.08;;;;;;;12.34;100.00;103033.06;6240166;23;20020;-79
2022/03/24 07:51:21;;;;;;;48.33;36.20;;;;;;;12.53;100.00;103031.88;6244052;23;20027;-79
2022/03/24 07:53:49;;;;;;;47.22;37.25;;;;;;;12.77;100.00;103028.19;6191843;23;20016;-77
2022/03/24 07:56:21;;;;;;;45.20;33.42;;;;;;;13.05;100.00;103035.16;6240706;23;20450;-77
2022/03/24 07:58:50;;;;;;;47.22;32.08;;;;;;;13.36;100.00;103028.06;6246078;23;20030;-77
2022/03/24 08:01:30;;;;;;;47.90;34.03;;;;;;;13.62;98.32;103032.28;6205074;23;20020;-77
2022/03/24 08:04:02;;;;;;;42.15;33.53;;;;;;;13.78;97.68;103030.94;6246787;23;20024;-78
2022/03/24 08:06:32;;;;;;;43.42;34.15;;;;;;;13.93;96.12;103029.50;6250242;23;20020;-77
2022/03/24 08:09:00;;;;;;;47.80;32.30;;;;;;;14.12;95.23;103030.84;6191711;23;20023;-78
2022/03/24 08:11:29;;;;;;;48.80;32.72;;;;;;;14.32;94.87;103028.66;6210429;23;20031;-78
2022/03/24 08:13:57;;;;;;;42.88;33.65;;;;;;;14.51;92.73;103033.50;6194862;23;20130;-77
2022/03/24 08:16:27;;;;;;;40.42;31.25;;;;;;;14.77;90.30;103034.09;6242211;23;20027;-77
2022/03/24 08:18:56;;;;;;;47.13;31.45;;;;;;;15.04;89.79;103042.56;6228310;23;20020;-77
2022/03/24 08:21:25;;;;;;;48.10;32.67;;;;;;;15.23;88.77;103035.84;6250380;23;20469;-79
2022/03/24 08:23:53;;;;;;;45.17;31.83;;;;;;;15.43;87.39;103037.13;6244719;23;20019;-78
2022/03/24 08:26:22;;;;;;;45.97;30.02;;;;;;;15.65;84.28;103034.81;6249337;23;20445;-78
2022/03/24 08:28:55;;;;;;;40.33;30.60;;;;;;;15.78;82.30;103039.50;6242852;23;20020;-77
2022/03/24 08:31:24;;;;;;;;;;;;;;;15.82;76.17;103028.06;6197343;23;20024;-78
2022/03/24 08:33:53;;;;;;;39.13;29.38;;;;;;;15.87;81.24;103034.34;6207160;23;19920;-78
2022/03/24 08:36:21;;;;;;;43.80;30.27;;;;;;;15.93;79.41;103039.75;6176645;23;20446;-78
2022/03/24 08:38:50;;;;;;;37.90;28.98;;;;;;;15.98;78.43;103039.84;6217345;23;20016;-78
2022/03/24 08:41:19;;;;;;;37.22;29.85;;;;;;;16.00;76.70;103038.09;6254026;23;20020;-78
2022/03/24 08:43:47;;;;;;;43.00;29.23;;;;;;;16.00;75.02;103038.09;6219588;23;20374;-78
2022/03/24 08:46:17;;;;;;;41.55;30.17;;;;;;;15.97;74.25;103041.63;6242023;23;20032;-77
2022/03/24 08:48:45;;;;;;;44.20;32.65;;;;;;;15.93;72.79;103044.19;6209025;23;20020;-78
2022/03/24 08:51:15;;;;;;;39.75;27.83;;;;;;;15.85;69.05;103044.06;6188413;23;20026;-78
2022/03/24 08:53:47;;;;;;;46.60;30.08;;;;;;;15.77;68.84;103043.06;6235821;23;20016;-78
2022/03/24 08:56:16;;;;;;;38.67;29.45;;;;;;;15.84;70.24;103041.38;6215445;23;20047;-77
2022/03/24 08:58:45;;;;;;;42.95;30.05;;;;;;;15.86;69.38;103044.94;6215595;23;20020;-78
2022/03/24 09:01:14;;;;;;;43.03;31.85;;;;;;;15.89;68.34;103037.91;6248114;23;20323;-78
2022/03/24 09:03:43;;;;;;;41.67;32.03;;;;;;;15.90;68.33;103047.69;6187275;23;20020;-78
2022/03/24 09:06:12;;;;;;;41.33;32.30;;;;;;;15.91;67.52;103043.28;6188555;23;20031;-78
2022/03/24 09:08:42;;;;;;;39.25;28.77;;;;;;;15.93;67.01;103049.50;6196299;23;20016;-78
2022/03/24 09:11:10;;;;;;;41.38;28.88;;;;;;;15.89;66.92;103045.91;6191151;23;20012;-77
2022/03/24 09:13:39;;;;;;;42.53;32.95;;;;;;;15.86;66.65;103052.94;6223911;23;20020;-78
2022/03/24 09:16:08;;;;;;;41.00;32.33;;;;;;;15.75;66.26;103060.75;6197337;23;20026;-78
2022/03/24 09:18:37;;;;;;;46.95;31.25;;;;;;;15.59;66.76;103057.78;6220967;23;20020;-78
2022/03/24 09:21:05;;;;;;;43.80;33.17;;;;;;;15.42;67.38;103061.00;6209663;23;20138;-78
2022/03/24 09:23:34;;;;;;;45.40;32.40;;;;;;;15.33;68.54;103059.06;6198513;23;20012;-78
2022/03/24 09:26:02;;;;;;;44.38;36.25;;;;;;;15.26;69.71;103067.81;6218524;23;20595;-78
2022/03/24 09:28:52;;;;;;;44.13;31.02;;;;;;;15.13;69.65;103062.22;6226111;23;20434;-78
2022/03/24 09:31:21;;;;;;;42.38;32.60;;;;;;;15.07;69.82;103064.78;6244691;23;20024;-78
2022/03/24 09:33:49;;;;;;;43.97;32.03;;;;;;;14.95;69.25;103067.16;6193049;23;20023;-78
2022/03/24 09:36:18;;;;;;;45.97;29.83;;;;;;;14.84;68.41;103076.66;6204037;23;20058;-77
2022/03/24 09:38:47;;;;;;;40.17;29.50;;;;;;;14.76;67.61;103077.44;6172571;23;20016;-77
2022/03/24 09:41:18;;;;;;;44.75;31.60;;;;;;;14.67;68.45;103079.88;6168447;23;20016;-78
2022/03/24 09:43:47;;;;;;;51.05;35.08;;;;;;;14.59;69.22;103066.44;6221280;23;20020;-78
2022/03/24 09:46:19;;;;;;;44.65;31.45;;;;;;;14.55;69.76;103067.19;6215697;23;20016;-77
2022/03/24 09:48:48;;;;;;;44.58;32.75;;;;;;;14.47;69.62;103067.91;6235584;23;20058;-77
2022/03/24 09:51:16;;;;;;;46.58;35.08;;;;;;;14.36;71.88;103068.53;6224619;23;20023;-78
2022/03/24 09:53:45;;;;;;;53.75;35.47;;;;;;;14.34;73.34;103072.03;6237300;23;20256;-77
2022/03/24 09:56:14;;;;;;;45.67;33.70;;;;;;;14.36;73.62;103068.53;6210481;23;20016;-78
2022/03/24 09:58:44;;;;;;;46.95;34.67;;;;;;;14.33;72.82;103071.13;6161064;23;20512;-78
2022/03/24 10:01:17;;;;;;;51.33;33.72;;;;;;;14.32;72.70;103066.66;6243115;23;20020;-77
2022/03/24 10:04:07;;;;;;;44.92;32.80;;;;;;;14.29;71.99;103066.63;6214283;23;20035;-77
2022/03/24 10:06:39;;;;;;;51.13;35.75;;;;;;;14.35;72.14;103065.88;6181963;23;20469;-77
2022/03/24 10:09:08;;;;;;;48.40;33.40;;;;;;;14.38;71.27;103065.91;6243898;23;20024;-78
2022/03/24 10:11:37;;;;;;;57.05;32.90;;;;;;;14.33;70.29;103057.88;6247492;23;20516;-78
2022/03/24 10:14:05;;;;;;;46.97;32.88;;;;;;;14.36;70.29;103065.88;6248539;23;20012;-78
2022/03/24 10:16:37;;;;;;;46.90;32.50;;;;;;;14.40;70.31;103067.75;6223763;23;20016;-78
2022/03/24 10:19:17;;;;;;;50.08;34.20;;;;;;;14.46;68.93;103063.44;6256501;23;20476;-78
2022/03/24 10:21:50;;;;;;;47.35;33.30;;;;;;;14.45;68.05;103059.00;6242448;23;20062;-78
2022/03/24 10:24:21;;;;;;;53.38;33.10;;;;;;;14.39;68.06;103052.69;6233326;23;20047;-78
2022/03/24 10:27:02;;;;;;;47.50;31.92;;;;;;;14.38;67.20;103068.56;6224598;23;20219;-78
2022/03/24 10:29:32;;;;;;;51.67;34.28;;;;;;;14.38;67.54;103057.97;6176983;23;20035;-79
2022/03/24 10:32:03;;;;;;;52.53;34.83;;;;;;;14.33;68.19;103065.81;6185619;23;20031;-78
2022/03/24 10:34:36;;;;;;;48.88;33.65;;;;;;;14.37;69.01;103065.03;6197080;23;20024;-78
2022/03/24 10:37:07;;;;;;;53.47;35.05;;;;;;;14.40;69.73;103056.22;6201318;23;20009;-79
2022/03/24 10:39:38;;;;;;;45.65;34.45;;;;;;;14.43;69.29;103058.97;6211898;23;20008;-78
2022/03/24 10:42:11;;;;;;;53.30;37.75;;;;;;;14.46;69.96;103063.44;6173515;23;20027;-79
2022/03/24 10:45:18;;;;;;;57.83;38.65;;;;;;;14.47;70.94;103066.13;6222614;23;20031;-78
2022/03/24 10:47:52;;;;;;;54.20;38.92;;;;;;;14.49;71.27;103063.50;6194385;23;20047;-78
2022/03/24 10:50:41;;;;;;;55.65;38.28;;;;;;;14.43;70.65;103058.97;6176383;23;20021;-78
2022/03/24 10:53:15;;;;;;;55.50;39.28;;;;;;;14.43;71.21;103061.63;6225330;23;20021;-79
2022/03/24 10:55:44;;;;;;;55.70;37.65;;;;;;;14.45;71.34;103069.63;6182945;23;20150;-78
2022/03/24 10:58:30;;;;;;;54.85;38.25;;;;;;;14.50;70.50;103062.63;6196541;23;20031;-79
2022/03/24 11:01:02;;;;;;;54.17;36.63;;;;;;;14.52;70.73;103055.63;6164415;23;20019;-78
2022/03/24 11:03:32;;;;;;;52.08;39.70;;;;;;;14.54;68.30;103061.88;6158359;23;20027;-79
2022/03/24 11:06:14;;;;;;;55.27;37.53;;;;;;;14.52;68.23;103055.63;6173898;23;20009;-79
2022/03/24 11:08:50;;;;;;;50.95;38.28;;;;;;;14.54;68.58;103056.56;6219850;23;20019;-79
2022/03/24 11:11:19;;;;;;;56.78;39.22;;;;;;;14.59;69.01;103054.91;6182432;23;20020;-78
2022/03/24 11:13:55;;;;;;;60.03;40.30;;;;;;;14.67;68.52;103053.34;6134293;23;20025;-79
2022/03/24 11:16:28;;;;;;;54.63;40.30;;;;;;;14.71;68.47;103060.50;6199942;23;20018;-78
2022/03/24 11:19:00;;;;;;;56.63;39.40;;;;;;;14.79;68.50;103040.31;6222335;23;20024;-79
2022/03/24 11:21:51;;;;;;;59.95;40.72;;;;;;;14.86;67.37;103049.31;6173031;23;20017;-78